CheckWX is a tool to help pilots better visualize weather data.  It is not intended as a substitute for an official pre-flight weather briefing.

05:16:56 UTC

KEZZ METAR
Cameron Memorial Airport
Cameron, Missouri, USA
Current

22 mins ago

KEZZ 260455Z AUTO 03005KT 3SM BR OVC002 19/18 A2982 RMK AO2 T01880185
Observed
Aug-26 @ 04:55 UTC
Wind
  • 030° at 5 KTS
Visibility
3 SM
Flight Rules
LIFR
Conditions
Mist
Cloud Levels
  • Overcast at 200' AGL
Temperature
19°C / 66°F
Dewpoint
19°C / 66°F
Humidity
100%
Altimeter
29.82" Hg
Pressure
1009.82 hPa
Previous

42 mins ago

KEZZ 260435Z AUTO 02003KT 7SM BR OVC004 19/19 A2983 RMK AO2 T01890185
Observed
Aug-26 @ 04:35 UTC
Wind
  • 020° at 3 KTS
Visibility
7 SM
Flight Rules
LIFR
Conditions
Mist
Cloud Levels
  • Overcast at 400' AGL
Temperature
19°C / 66°F
Dewpoint
19°C / 66°F
Humidity
100%
Altimeter
29.83" Hg
Pressure
1010.12 hPa
Previous

1 hour ago

KEZZ 260415Z AUTO 04004KT 10SM OVC004 19/18 A2984 RMK AO2 T01890185
Observed
Aug-26 @ 04:15 UTC
Wind
  • 040° at 4 KTS
Visibility
10 SM
Flight Rules
LIFR
Cloud Levels
  • Overcast at 400' AGL
Temperature
19°C / 66°F
Dewpoint
19°C / 66°F
Humidity
100%
Altimeter
29.84" Hg
Pressure
1010.52 hPa